Time,TemperatureF,DewpointF,PressureIn,WindDirection,WindDirectionDegrees,WindSpeedMPH,WindSpeedGustMPH,Humidity,HourlyPrecipIn,Conditions,Clouds,dailyrainin,SolarRadiationWatts/m^2,SoftwareType,DateUTC
2013-05-11 00:00:00,62.1,57.5,29.83,WSW,242,4.0,5.0,85,0.00,,---,0.00,0.00,VWS V14.00,2013-05-11 04:00:00,
2013-05-11 00:04:00,62.1,57.5,29.83,WSW,240,7.0,7.0,85,0.00,,---,0.00,0.00,VWS V14.00,2013-05-11 04:04:00,
2013-05-11 00:05:00,62.1,57.5,29.83,WSW,243,4.0,7.0,85,0.00,,---,0.00,0.00,VWS V14.00,2013-05-11 04:05:00,
2013-05-11 00:09:00,62.2,57.6,29.83,SW,227,5.0,7.0,85,0.00,,---,0.00,0.00,VWS V14.00,2013-05-11 04:09:00,
2013-05-11 00:14:00,62.3,57.7,29.83,WSW,242,4.0,11.0,85,0.00,,---,0.00,0.00,VWS V14.00,2013-05-11 04:14:00,
2013-05-11 00:19:00,62.3,57.7,29.83,WNW,290,4.0,8.0,85,0.00,,---,0.00,0.00,VWS V14.00,2013-05-11 04:19:00,
2013-05-11 00:24:00,62.3,57.7,29.84,WSW,250,1.0,4.0,85,0.00,,---,0.00,0.00,VWS V14.00,2013-05-11 04:24:00,
2013-05-11 00:29:00,62.3,57.7,29.84,WSW,247,1.0,5.0,85,0.00,,---,0.00,0.00,VWS V14.00,2013-05-11 04:29:00,
2013-05-11 00:35:00,62.4,57.8,29.84,WNW,284,0.0,4.0,85,0.00,,---,0.00,0.00,VWS V14.00,2013-05-11 04:35:00,
2013-05-11 00:40:00,62.3,57.7,29.83,West,279,1.0,4.0,85,0.00,,---,0.00,0.00,VWS V14.00,2013-05-11 04:40:00,
2013-05-11 00:45:00,62.3,57.7,29.83,WSW,257,1.0,3.0,85,0.01,,---,0.01,0.00,VWS V14.00,2013-05-11 04:45:00,
2013-05-11 00:50:00,62.3,57.7,29.83,WSW,240,1.0,5.0,85,0.01,,---,0.01,0.00,VWS V14.00,2013-05-11 04:50:00,
2013-05-11 00:55:00,62.3,57.7,29.84,NW,310,6.0,6.0,85,0.03,,---,0.03,0.00,VWS V14.00,2013-05-11 04:55:00,
2013-05-11 01:00:00,62.0,57.8,29.84,WNW,295,8.0,9.0,86,0.04,,---,0.04,0.00,VWS V14.00,2013-05-11 05:00:00,
2013-05-11 01:05:00,61.5,57.3,29.84,NW,314,6.0,8.0,86,0.06,,---,0.06,0.00,VWS V14.00,2013-05-11 05:05:00,
2013-05-11 01:10:00,61.3,57.1,29.84,NW,323,7.0,8.0,86,0.09,,---,0.09,0.00,VWS V14.00,2013-05-11 05:10:00,
2013-05-11 01:15:00,61.0,56.8,29.84,NW,313,6.0,8.0,86,0.09,,---,0.09,0.00,VWS V14.00,2013-05-11 05:15:00,
2013-05-11 01:20:00,60.8,56.6,29.84,NW,309,5.0,5.0,86,0.11,,---,0.11,0.00,VWS V14.00,2013-05-11 05:20:00,
2013-05-11 01:25:00,60.7,56.5,29.84,NW,324,5.0,6.0,86,0.11,,---,0.11,0.00,VWS V14.00,2013-05-11 05:25:00,
2013-05-11 01:30:00,60.6,56.4,29.84,NW,322,2.0,6.0,86,0.11,,---,0.11,0.00,VWS V14.00,2013-05-11 05:30:00,
2013-05-11 01:35:00,60.4,56.2,29.84,WNW,294,5.0,7.0,86,0.11,,---,0.11,0.00,VWS V14.00,2013-05-11 05:35:00,
2013-05-11 01:40:00,60.3,56.1,29.84,NW,321,5.0,9.0,86,0.12,,---,0.12,0.00,VWS V14.00,2013-05-11 05:40:00,
2013-05-11 01:45:00,60.2,56.0,29.85,NW,324,6.0,8.0,86,0.11,,---,0.12,0.00,VWS V14.00,2013-05-11 05:45:00,
2013-05-11 01:50:00,60.0,55.8,29.85,NNW,327,8.0,8.0,86,0.11,,---,0.12,0.00,VWS V14.00,2013-05-11 05:50:00,
2013-05-11 01:55:00,59.7,55.5,29.84,NW,316,11.0,12.0,86,0.09,,---,0.12,0.00,VWS V14.00,2013-05-11 05:55:00,
2013-05-11 02:00:00,59.5,55.3,29.84,NNW,331,3.0,11.0,86,0.08,,---,0.12,0.00,VWS V14.00,2013-05-11 06:00:00,
2013-05-11 02:05:00,59.3,55.1,29.84,NW,325,4.0,9.0,86,0.06,,---,0.12,0.00,VWS V14.00,2013-05-11 06:05:00,
2013-05-11 02:10:00,58.9,54.7,29.84,NW,318,3.0,5.0,86,0.04,,---,0.12,0.00,VWS V14.00,2013-05-11 06:10:00,
2013-05-11 02:15:00,58.6,54.4,29.84,NW,304,7.0,11.0,86,0.03,,---,0.12,0.00,VWS V14.00,2013-05-11 06:15:00,
2013-05-11 02:20:00,58.2,54.4,29.84,NW,319,9.0,12.0,87,0.01,,---,0.12,0.00,VWS V14.00,2013-05-11 06:20:00,
2013-05-11 02:25:00,58.1,54.3,29.84,NNW,345,8.0,8.0,87,0.01,,---,0.12,0.00,VWS V14.00,2013-05-11 06:25:00,
2013-05-11 02:30:00,57.9,54.1,29.84,NW,321,6.0,10.0,87,0.01,,---,0.12,0.00,VWS V14.00,2013-05-11 06:30:00,
2013-05-11 02:35:00,57.8,54.0,29.85,NW,324,2.0,6.0,87,0.01,,---,0.12,0.00,VWS V14.00,2013-05-11 06:35:00,
2013-05-11 02:40:00,57.7,53.9,29.84,NW,315,0.0,0.0,87,0.00,,---,0.12,0.00,VWS V14.00,2013-05-11 06:40:00,
2013-05-11 02:45:00,57.2,53.4,29.84,NNW,334,6.0,6.0,87,0.00,,---,0.12,0.00,VWS V14.00,2013-05-11 06:45:00,
2013-05-11 02:50:00,56.8,53.0,29.84,NW,325,0.0,4.0,87,0.00,,---,0.12,0.00,VWS V14.00,2013-05-11 06:50:00,
2013-05-11 02:55:00,56.6,52.8,29.84,NW,320,2.0,5.0,87,0.00,,---,0.12,0.00,VWS V14.00,2013-05-11 06:55:00,
2013-05-11 03:00:00,56.6,52.8,29.84,NW,305,1.0,2.0,87,0.00,,---,0.12,0.00,VWS V14.00,2013-05-11 07:00:00,
2013-05-11 03:05:00,56.5,52.7,29.84,NW,306,0.0,3.0,87,0.00,,---,0.12,0.00,VWS V14.00,2013-05-11 07:05:00,
2013-05-11 03:10:00,56.4,52.6,29.85,NW,312,6.0,7.0,87,0.00,,---,0.12,0.00,VWS V14.00,2013-05-11 07:10:00,
2013-05-11 03:15:00,56.2,52.4,29.85,NW,313,2.0,5.0,87,0.00,,---,0.12,0.00,VWS V14.00,2013-05-11 07:15:00,
2013-05-11 03:21:00,56.1,52.3,29.85,NW,316,4.0,4.0,87,0.00,,---,0.12,0.00,VWS V14.00,2013-05-11 07:21:00,
2013-05-11 03:26:00,56.0,52.2,29.84,NNW,329,4.0,4.0,87,0.00,,---,0.12,0.00,VWS V14.00,2013-05-11 07:26:00,
2013-05-11 03:31:00,55.9,52.1,29.85,NW,317,6.0,7.0,87,0.00,,---,0.12,0.00,VWS V14.00,2013-05-11 07:31:00,
2013-05-11 03:36:00,55.7,51.9,29.85,NNW,332,4.0,8.0,87,0.00,,---,0.12,0.00,VWS V14.00,2013-05-11 07:36:00,
2013-05-11 03:41:00,55.5,51.7,29.85,NW,324,4.0,8.0,87,0.00,,---,0.12,0.00,VWS V14.00,2013-05-11 07:41:00,
2013-05-11 03:46:00,55.4,51.6,29.85,NW,319,7.0,7.0,87,0.00,,---,0.12,0.00,VWS V14.00,2013-05-11 07:46:00,
2013-05-11 03:51:00,55.3,51.5,29.84,NNW,340,4.0,9.0,87,0.00,,---,0.12,0.00,VWS V14.00,2013-05-11 07:51:00,
2013-05-11 03:56:00,55.2,51.4,29.84,NW,306,4.0,7.0,87,0.00,,---,0.12,0.00,VWS V14.00,2013-05-11 07:56:00,
2013-05-11 04:01:00,55.0,51.2,29.84,NW,325,8.0,10.0,87,0.00,,---,0.12,0.00,VWS V14.00,2013-05-11 08:01:00,
2013-05-11 04:06:00,54.8,51.0,29.84,NNW,327,1.0,6.0,87,0.00,,---,0.12,0.00,VWS V14.00,2013-05-11 08:06:00,
2013-05-11 04:11:00,54.6,50.8,29.84,NW,322,5.0,8.0,87,0.00,,---,0.12,0.00,VWS V14.00,2013-05-11 08:11:00,
2013-05-11 04:16:00,54.5,50.7,29.84,NW,310,8.0,8.0,87,0.00,,---,0.12,0.00,VWS V14.00,2013-05-11 08:16:00,
2013-05-11 04:21:00,54.4,50.6,29.84,NW,325,7.0,10.0,87,0.00,,---,0.12,0.00,VWS V14.00,2013-05-11 08:21:00,
2013-05-11 04:26:00,54.4,50.6,29.85,NW,316,5.0,6.0,87,0.00,,---,0.12,0.00,VWS V14.00,2013-05-11 08:26:00,
2013-05-11 04:31:00,54.2,50.4,29.85,NW,324,5.0,8.0,87,0.00,,---,0.12,0.00,VWS V14.00,2013-05-11 08:31:00,
2013-05-11 04:36:00,54.2,50.4,29.85,NNW,330,6.0,8.0,87,0.00,,---,0.12,0.00,VWS V14.00,2013-05-11 08:36:00,
2013-05-11 04:41:00,54.1,50.3,29.85,NNW,329,5.0,12.0,87,0.00,,---,0.12,0.00,VWS V14.00,2013-05-11 08:41:00,
2013-05-11 04:46:00,53.9,50.1,29.85,NNW,331,1.0,9.0,87,0.00,,---,0.12,0.00,VWS V14.00,2013-05-11 08:46:00,
2013-05-11 04:51:00,53.8,50.0,29.86,NNW,331,4.0,7.0,87,0.00,,---,0.12,0.00,VWS V14.00,2013-05-11 08:51:00,
2013-05-11 04:56:00,53.8,50.0,29.86,NW,322,5.0,7.0,87,0.00,,---,0.12,0.00,VWS V14.00,2013-05-11 08:56:00,
2013-05-11 05:01:00,53.7,49.9,29.86,NW,320,8.0,10.0,87,0.00,,---,0.12,0.00,VWS V14.00,2013-05-11 09:01:00,
2013-05-11 05:06:00,53.5,49.7,29.86,WNW,294,7.0,7.0,87,0.00,,---,0.12,0.00,VWS V14.00,2013-05-11 09:06:00,
2013-05-11 05:11:00,53.3,49.5,29.87,NNW,327,3.0,8.0,87,0.00,,---,0.12,0.00,VWS V14.00,2013-05-11 09:11:00,
2013-05-11 05:16:00,53.0,49.2,29.87,NW,319,7.0,8.0,87,0.00,,---,0.12,0.00,VWS V14.00,2013-05-11 09:16:00,
2013-05-11 05:21:00,52.8,49.0,29.87,NW,317,8.0,8.0,87,0.00,,---,0.12,0.00,VWS V14.00,2013-05-11 09:21:00,
2013-05-11 05:26:00,52.7,49.0,29.87,NNW,340,8.0,11.0,87,0.00,,---,0.12,0.00,VWS V14.00,2013-05-11 09:26:00,
2013-05-11 05:31:00,52.6,48.8,29.87,NNW,336,4.0,6.0,87,0.00,,---,0.12,0.00,VWS V14.00,2013-05-11 09:31:00,
2013-05-11 05:36:00,52.6,48.8,29.87,NNW,329,5.0,11.0,87,0.00,,---,0.12,0.00,VWS V14.00,2013-05-11 09:36:00,
2013-05-11 05:41:00,52.4,48.7,29.87,NNW,329,6.0,9.0,87,0.00,,---,0.12,0.00,VWS V14.00,2013-05-11 09:41:00,
2013-05-11 05:46:00,52.3,48.9,29.87,NNW,336,0.0,4.0,88,0.00,,---,0.12,0.00,VWS V14.00,2013-05-11 09:46:00,
2013-05-11 05:51:00,52.1,48.7,29.87,NNW,331,0.0,1.0,88,0.00,,---,0.12,0.00,VWS V14.00,2013-05-11 09:51:00,
2013-05-11 05:56:00,52.0,48.6,29.87,NW,321,5.0,5.0,88,0.00,,---,0.12,0.00,VWS V14.00,2013-05-11 09:56:00,
2013-05-11 06:01:00,51.9,48.5,29.88,NW,322,2.0,6.0,88,0.00,,---,0.12,0.00,VWS V14.00,2013-05-11 10:01:00,
2013-05-11 06:06:00,51.9,48.5,29.88,NW,319,4.0,6.0,88,0.00,,---,0.12,0.00,VWS V14.00,2013-05-11 10:06:00,
2013-05-11 06:11:00,51.8,48.4,29.88,NW,319,6.0,6.0,88,0.00,,---,0.12,0.00,VWS V14.00,2013-05-11 10:11:00,
2013-05-11 06:16:00,51.7,48.3,29.88,NW,325,0.0,5.0,88,0.00,,---,0.12,0.00,VWS V14.00,2013-05-11 10:16:00,
2013-05-11 06:21:00,51.7,48.3,29.87,NW,322,6.0,7.0,88,0.00,,---,0.12,0.00,VWS V14.00,2013-05-11 10:21:00,
2013-05-11 06:26:00,51.6,48.2,29.88,WNW,301,6.0,6.0,88,0.00,,---,0.12,0.00,VWS V14.00,2013-05-11 10:26:00,
2013-05-11 06:31:00,51.5,48.1,29.87,NNW,335,0.0,2.0,88,0.00,,---,0.12,0.00,VWS V14.00,2013-05-11 10:31:00,
2013-05-11 06:36:00,51.5,48.1,29.87,NNW,335,0.0,2.0,88,0.00,,---,0.12,0.00,VWS V14.00,2013-05-11 10:36:00,
2013-05-11 06:41:00,51.5,48.1,29.87,NW,326,2.0,5.0,88,0.00,,---,0.12,0.00,VWS V14.00,2013-05-11 10:41:00,
2013-05-11 06:46:00,51.5,48.1,29.87,NNW,329,5.0,8.0,88,0.00,,---,0.12,0.00,VWS V14.00,2013-05-11 10:46:00,
2013-05-11 06:51:00,51.4,48.0,29.88,NW,323,1.0,6.0,88,0.00,,---,0.12,7.00,VWS V14.00,2013-05-11 10:51:00,
2013-05-11 06:56:00,51.4,48.0,29.88,NW,317,0.0,4.0,88,0.00,,---,0.12,11.00,VWS V14.00,2013-05-11 10:56:00,
2013-05-11 07:01:00,51.3,47.9,29.88,NNW,330,0.0,5.0,88,0.00,,---,0.12,12.00,VWS V14.00,2013-05-11 11:01:00,
2013-05-11 07:06:00,51.2,47.8,29.88,NW,314,5.0,6.0,88,0.00,,---,0.12,25.00,VWS V14.00,2013-05-11 11:06:00,
2013-05-11 07:11:00,51.2,47.8,29.88,NNW,333,4.0,10.0,88,0.00,,---,0.12,19.00,VWS V14.00,2013-05-11 11:11:00,
2013-05-11 07:16:00,51.1,47.7,29.88,NNW,338,1.0,8.0,88,0.00,,---,0.12,14.00,VWS V14.00,2013-05-11 11:16:00,
2013-05-11 07:21:00,51.1,47.7,29.89,NNW,328,6.0,8.0,88,0.00,,---,0.12,19.00,VWS V14.00,2013-05-11 11:21:00,
2013-05-11 07:26:00,51.1,47.7,29.88,NW,324,3.0,7.0,88,0.00,,---,0.12,26.00,VWS V14.00,2013-05-11 11:26:00,
2013-05-11 07:31:00,51.1,47.7,29.89,NW,326,5.0,6.0,88,0.00,,---,0.12,28.00,VWS V14.00,2013-05-11 11:31:00,
2013-05-11 07:36:00,51.1,47.7,29.89,NNW,332,6.0,8.0,88,0.00,,---,0.12,33.00,VWS V14.00,2013-05-11 11:36:00,
2013-05-11 07:41:00,51.0,47.6,29.88,NW,316,4.0,5.0,88,0.00,,---,0.12,26.00,VWS V14.00,2013-05-11 11:41:00,
2013-05-11 07:46:00,51.0,47.6,29.88,NW,322,6.0,7.0,88,0.00,,---,0.12,30.00,VWS V14.00,2013-05-11 11:46:00,
2013-05-11 07:51:00,51.0,47.9,29.88,NNW,337,1.0,9.0,89,0.00,,---,0.12,37.00,VWS V14.00,2013-05-11 11:51:00,
2013-05-11 07:56:00,50.9,47.5,29.88,NNW,329,5.0,10.0,88,0.00,,---,0.12,32.00,VWS V14.00,2013-05-11 11:56:00,
2013-05-11 08:01:00,50.8,47.4,29.88,NW,323,2.0,7.0,88,0.00,,---,0.12,35.00,VWS V14.00,2013-05-11 12:01:00,
2013-05-11 08:06:00,50.9,47.5,29.88,NW,326,1.0,7.0,88,0.00,,---,0.12,47.00,VWS V14.00,2013-05-11 12:06:00,
2013-05-11 08:11:00,50.9,47.5,29.88,NNW,335,2.0,11.0,88,0.00,,---,0.12,44.00,VWS V14.00,2013-05-11 12:11:00,
2013-05-11 08:16:00,50.8,47.7,29.88,NW,317,5.0,7.0,89,0.00,,---,0.12,62.00,VWS V14.00,2013-05-11 12:16:00,
2013-05-11 08:21:00,50.8,47.7,29.88,NNW,332,3.0,8.0,89,0.00,,---,0.12,62.00,VWS V14.00,2013-05-11 12:21:00,
2013-05-11 08:26:00,50.8,47.7,29.88,North,350,3.0,11.0,89,0.00,,---,0.12,63.00,VWS V14.00,2013-05-11 12:26:00,
2013-05-11 08:31:00,50.8,47.7,29.88,NNW,329,4.0,8.0,89,0.00,,---,0.12,54.00,VWS V14.00,2013-05-11 12:31:00,
2013-05-11 08:36:00,50.8,47.7,29.88,NW,317,0.0,5.0,89,0.00,,---,0.12,56.00,VWS V14.00,2013-05-11 12:36:00,
2013-05-11 08:41:00,50.8,47.7,29.88,NNW,330,0.0,4.0,89,0.00,,---,0.12,54.00,VWS V14.00,2013-05-11 12:41:00,
2013-05-11 08:46:00,50.9,47.8,29.88,NW,324,1.0,5.0,89,0.00,,---,0.12,51.00,VWS V14.00,2013-05-11 12:46:00,
2013-05-11 08:51:00,50.7,47.6,29.89,NNW,334,9.0,9.0,89,0.00,,---,0.12,62.00,VWS V14.00,2013-05-11 12:51:00,
2013-05-11 08:56:00,50.7,47.6,29.88,NW,322,5.0,5.0,89,0.00,,---,0.12,70.00,VWS V14.00,2013-05-11 12:56:00,
2013-05-11 09:01:00,50.7,47.6,29.89,NNW,333,2.0,8.0,89,0.00,,---,0.12,95.00,VWS V14.00,2013-05-11 13:01:00,
2013-05-11 09:06:00,50.8,47.7,29.89,WNW,296,5.0,7.0,89,0.00,,---,0.12,114.00,VWS V14.00,2013-05-11 13:06:00,
2013-05-11 09:11:00,50.8,47.7,29.89,NW,320,2.0,5.0,89,0.00,,---,0.12,65.00,VWS V14.00,2013-05-11 13:11:00,
2013-05-11 09:16:00,50.7,47.6,29.90,NW,320,2.0,6.0,89,0.00,,---,0.12,83.00,VWS V14.00,2013-05-11 13:16:00,
2013-05-11 09:21:00,50.6,47.5,29.90,NW,323,5.0,7.0,89,0.00,,---,0.12,74.00,VWS V14.00,2013-05-11 13:21:00,
2013-05-11 09:26:00,50.6,47.5,29.90,NNW,329,5.0,6.0,89,0.00,,---,0.12,70.00,VWS V14.00,2013-05-11 13:26:00,
2013-05-11 09:31:00,50.6,47.5,29.90,NW,326,5.0,5.0,89,0.00,,---,0.12,60.00,VWS V14.00,2013-05-11 13:31:00,
2013-05-11 09:36:00,50.6,47.5,29.90,NW,324,5.0,9.0,89,0.00,,---,0.12,62.00,VWS V14.00,2013-05-11 13:36:00,
2013-05-11 09:41:00,50.5,47.4,29.90,NW,315,5.0,7.0,89,0.00,,---,0.12,65.00,VWS V14.00,2013-05-11 13:41:00,
2013-05-11 09:46:00,50.5,47.4,29.91,NW,323,2.0,4.0,89,0.00,,---,0.12,56.00,VWS V14.00,2013-05-11 13:46:00,
2013-05-11 09:51:00,50.5,47.4,29.91,NNW,332,6.0,8.0,89,0.00,,---,0.12,60.00,VWS V14.00,2013-05-11 13:51:00,
2013-05-11 09:56:00,50.4,47.3,29.91,NW,325,4.0,7.0,89,0.00,,---,0.12,65.00,VWS V14.00,2013-05-11 13:56:00,
2013-05-11 10:01:00,50.3,47.2,29.91,NW,321,5.0,6.0,89,0.00,,---,0.12,63.00,VWS V14.00,2013-05-11 14:01:00,
2013-05-11 10:06:00,50.3,47.2,29.91,NNW,331,7.0,9.0,89,0.00,,---,0.12,81.00,VWS V14.00,2013-05-11 14:06:00,
2013-05-11 10:11:00,50.1,47.0,29.91,NNW,330,5.0,11.0,89,0.00,,---,0.12,100.00,VWS V14.00,2013-05-11 14:11:00,
2013-05-11 10:16:00,50.1,47.0,29.91,NW,317,8.0,8.0,89,0.00,,---,0.12,111.00,VWS V14.00,2013-05-11 14:16:00,
2013-05-11 10:21:00,50.3,47.2,29.91,NW,320,2.0,8.0,89,0.00,,---,0.12,130.00,VWS V14.00,2013-05-11 14:21:00,
2013-05-11 10:26:00,50.5,47.4,29.91,NNW,327,5.0,8.0,89,0.00,,---,0.12,132.00,VWS V14.00,2013-05-11 14:26:00,
2013-05-11 10:31:00,50.6,47.5,29.91,NW,317,4.0,6.0,89,0.00,,---,0.12,123.00,VWS V14.00,2013-05-11 14:31:00,
2013-05-11 10:36:00,50.8,47.7,29.91,WNW,290,0.0,2.0,89,0.00,,---,0.12,128.00,VWS V14.00,2013-05-11 14:36:00,
2013-05-11 10:41:00,50.9,47.8,29.90,NW,323,6.0,7.0,89,0.00,,---,0.12,114.00,VWS V14.00,2013-05-11 14:41:00,
2013-05-11 10:46:00,50.9,47.8,29.90,NW,311,8.0,8.0,89,0.00,,---,0.12,105.00,VWS V14.00,2013-05-11 14:46:00,
2013-05-11 10:51:00,51.0,47.9,29.90,WNW,298,2.0,9.0,89,0.00,,---,0.12,98.00,VWS V14.00,2013-05-11 14:51:00,
2013-05-11 10:56:00,51.1,48.0,29.90,WNW,293,4.0,4.0,89,0.00,,---,0.12,105.00,VWS V14.00,2013-05-11 14:56:00,
2013-05-11 11:01:00,51.2,48.1,29.90,WNW,292,0.0,4.0,89,0.01,,---,0.13,107.00,VWS V14.00,2013-05-11 15:01:00,
2013-05-11 11:06:00,51.3,48.2,29.90,NW,317,4.0,4.0,89,0.01,,---,0.13,113.00,VWS V14.00,2013-05-11 15:06:00,
2013-05-11 11:11:00,51.2,48.1,29.90,NW,321,2.0,9.0,89,0.01,,---,0.13,127.00,VWS V14.00,2013-05-11 15:11:00,
2013-05-11 11:16:00,51.3,48.2,29.90,NW,313,6.0,7.0,89,0.01,,---,0.13,137.00,VWS V14.00,2013-05-11 15:16:00,
2013-05-11 11:21:00,51.2,48.1,29.90,NNW,333,6.0,8.0,89,0.01,,---,0.13,134.00,VWS V14.00,2013-05-11 15:21:00,
2013-05-11 11:26:00,51.1,48.0,29.90,NW,317,5.0,9.0,89,0.01,,---,0.13,151.00,VWS V14.00,2013-05-11 15:26:00,
2013-05-11 11:31:00,51.0,47.9,29.90,NNW,342,7.0,8.0,89,0.01,,---,0.13,141.00,VWS V14.00,2013-05-11 15:31:00,
2013-05-11 11:36:00,50.8,47.7,29.90,NW,315,4.0,8.0,89,0.01,,---,0.13,141.00,VWS V14.00,2013-05-11 15:36:00,
2013-05-11 11:41:00,50.7,47.6,29.90,NW,325,5.0,6.0,89,0.01,,---,0.13,151.00,VWS V14.00,2013-05-11 15:41:00,
2013-05-11 11:46:00,50.7,47.6,29.90,NNW,333,8.0,10.0,89,0.01,,---,0.13,151.00,VWS V14.00,2013-05-11 15:46:00,
2013-05-11 11:51:00,50.7,47.6,29.91,NW,306,3.0,10.0,89,0.01,,---,0.13,158.00,VWS V14.00,2013-05-11 15:51:00,
2013-05-11 11:56:00,50.9,47.8,29.91,NNW,333,6.0,8.0,89,0.01,,---,0.13,156.00,VWS V14.00,2013-05-11 15:56:00,
2013-05-11 12:01:00,50.9,47.8,29.91,NW,325,4.0,8.0,89,0.00,,---,0.13,178.00,VWS V14.00,2013-05-11 16:01:00,
2013-05-11 12:06:00,51.0,47.9,29.91,WNW,292,2.0,6.0,89,0.00,,---,0.13,193.00,VWS V14.00,2013-05-11 16:06:00,
2013-05-11 12:12:00,51.2,48.1,29.92,NW,311,2.0,5.0,89,0.00,,---,0.13,121.00,VWS V14.00,2013-05-11 16:12:00,
2013-05-11 12:17:00,51.3,48.2,29.91,NW,325,4.0,7.0,89,0.00,,---,0.13,118.00,VWS V14.00,2013-05-11 16:17:00,
2013-05-11 12:22:00,51.4,48.3,29.92,West,263,2.0,4.0,89,0.00,,---,0.13,141.00,VWS V14.00,2013-05-11 16:22:00,
2013-05-11 12:27:00,51.5,48.4,29.92,West,273,8.0,8.0,89,0.00,,---,0.13,165.00,VWS V14.00,2013-05-11 16:27:00,
2013-05-11 12:32:00,51.5,48.4,29.92,WSW,241,0.0,5.0,89,0.00,,---,0.13,142.00,VWS V14.00,2013-05-11 16:32:00,
2013-05-11 12:37:00,51.6,48.5,29.92,West,275,4.0,7.0,89,0.00,,---,0.13,120.00,VWS V14.00,2013-05-11 16:37:00,
2013-05-11 12:42:00,51.6,48.2,29.92,West,280,7.0,9.0,88,0.00,,---,0.13,116.00,VWS V14.00,2013-05-11 16:42:00,
2013-05-11 12:47:00,51.6,48.5,29.92,NW,315,4.0,9.0,89,0.00,,---,0.13,142.00,VWS V14.00,2013-05-11 16:47:00,
2013-05-11 12:52:00,51.5,48.4,29.92,West,272,2.0,10.0,89,0.00,,---,0.13,156.00,VWS V14.00,2013-05-11 16:52:00,
2013-05-11 12:57:00,51.4,48.3,29.92,NW,313,5.0,8.0,89,0.00,,---,0.13,151.00,VWS V14.00,2013-05-11 16:57:00,
2013-05-11 13:02:00,51.4,48.3,29.92,WNW,290,4.0,7.0,89,0.00,,---,0.13,111.00,VWS V14.00,2013-05-11 17:02:00,
2013-05-11 13:07:00,51.4,48.3,29.92,West,267,6.0,8.0,89,0.00,,---,0.13,98.00,VWS V14.00,2013-05-11 17:07:00,
2013-05-11 13:12:00,51.2,48.1,29.92,NW,313,7.0,8.0,89,0.00,,---,0.13,97.00,VWS V14.00,2013-05-11 17:12:00,
2013-05-11 13:17:00,51.2,48.1,29.92,NW,304,5.0,6.0,89,0.00,,---,0.13,107.00,VWS V14.00,2013-05-11 17:17:00,
2013-05-11 13:22:00,51.1,48.0,29.92,WNW,288,4.0,8.0,89,0.00,,---,0.13,121.00,VWS V14.00,2013-05-11 17:22:00,
2013-05-11 13:27:00,50.9,47.8,29.92,NW,315,10.0,11.0,89,0.00,,---,0.13,162.00,VWS V14.00,2013-05-11 17:27:00,
2013-05-11 13:32:00,50.8,47.7,29.92,NNE,19,6.0,7.0,89,0.00,,---,0.13,207.00,VWS V14.00,2013-05-11 17:32:00,
2013-05-11 13:37:00,50.9,47.8,29.91,WNW,296,8.0,8.0,89,0.00,,---,0.13,329.00,VWS V14.00,2013-05-11 17:37:00,
2013-05-11 13:42:00,51.2,48.1,29.91,NNW,329,8.0,10.0,89,0.00,,---,0.13,427.00,VWS V14.00,2013-05-11 17:42:00,
2013-05-11 13:47:00,51.3,48.2,29.91,WNW,291,5.0,7.0,89,0.00,,---,0.13,403.00,VWS V14.00,2013-05-11 17:47:00,
2013-05-11 13:52:00,51.6,48.5,29.91,SW,223,4.0,12.0,89,0.00,,---,0.13,343.00,VWS V14.00,2013-05-11 17:52:00,
2013-05-11 13:57:00,51.7,48.6,29.91,NW,309,5.0,11.0,89,0.00,,---,0.13,315.00,VWS V14.00,2013-05-11 17:57:00,
2013-05-11 14:02:00,51.7,48.6,29.91,NW,313,6.0,9.0,89,0.00,,---,0.13,211.00,VWS V14.00,2013-05-11 18:02:00,
2013-05-11 14:07:00,51.6,48.2,29.91,NW,315,6.0,9.0,88,0.00,,---,0.13,248.00,VWS V14.00,2013-05-11 18:07:00,
2013-05-11 14:12:00,51.6,48.5,29.91,WNW,290,4.0,9.0,89,0.00,,---,0.13,281.00,VWS V14.00,2013-05-11 18:12:00,
2013-05-11 14:17:00,51.7,48.6,29.92,NW,315,4.0,9.0,89,0.00,,---,0.13,299.00,VWS V14.00,2013-05-11 18:17:00,
2013-05-11 14:22:00,51.9,48.8,29.92,NW,311,5.0,8.0,89,0.00,,---,0.13,299.00,VWS V14.00,2013-05-11 18:22:00,
2013-05-11 14:27:00,51.9,48.5,29.92,SW,224,4.0,8.0,88,0.00,,---,0.13,214.00,VWS V14.00,2013-05-11 18:27:00,
2013-05-11 14:32:00,52.1,48.7,29.92,NW,308,4.0,11.0,88,0.00,,---,0.13,262.00,VWS V14.00,2013-05-11 18:32:00,
2013-05-11 14:37:00,52.0,48.6,29.92,WNW,290,3.0,7.0,88,0.00,,---,0.13,165.00,VWS V14.00,2013-05-11 18:37:00,
2013-05-11 14:42:00,52.0,48.6,29.92,NW,313,5.0,8.0,88,0.00,,---,0.13,156.00,VWS V14.00,2013-05-11 18:42:00,
2013-05-11 14:47:00,52.0,48.6,29.92,NW,323,7.0,8.0,88,0.00,,---,0.13,237.00,VWS V14.00,2013-05-11 18:47:00,
2013-05-11 14:52:00,52.1,48.7,29.92,WNW,300,7.0,8.0,88,0.00,,---,0.13,301.00,VWS V14.00,2013-05-11 18:52:00,
2013-05-11 14:57:00,52.2,48.8,29.92,NW,321,9.0,11.0,88,0.00,,---,0.13,251.00,VWS V14.00,2013-05-11 18:57:00,
2013-05-11 15:02:00,52.3,48.5,29.91,NW,323,9.0,9.0,87,0.00,,---,0.13,341.00,VWS V14.00,2013-05-11 19:02:00,
2013-05-11 15:07:00,52.4,48.7,29.92,WNW,300,4.0,8.0,87,0.00,,---,0.13,250.00,VWS V14.00,2013-05-11 19:07:00,
2013-05-11 15:12:00,52.6,48.8,29.92,NNW,336,9.0,12.0,87,0.00,,---,0.13,221.00,VWS V14.00,2013-05-11 19:12:00,
2013-05-11 15:17:00,52.7,49.0,29.92,WNW,302,10.0,12.0,87,0.00,,---,0.13,171.00,VWS V14.00,2013-05-11 19:17:00,
2013-05-11 15:22:00,52.7,49.0,29.92,NW,313,5.0,10.0,87,0.00,,---,0.13,156.00,VWS V14.00,2013-05-11 19:22:00,
2013-05-11 15:27:00,52.7,49.2,29.92,West,275,5.0,8.0,88,0.00,,---,0.13,264.00,VWS V14.00,2013-05-11 19:27:00,
2013-05-11 15:32:00,53.0,49.5,29.92,West,281,1.0,6.0,88,0.00,,---,0.13,269.00,VWS V14.00,2013-05-11 19:32:00,
2013-05-11 15:37:00,53.3,49.8,29.91,NW,319,8.0,11.0,88,0.00,,---,0.13,204.00,VWS V14.00,2013-05-11 19:37:00,
2013-05-11 15:42:00,53.2,49.4,29.91,WNW,297,6.0,10.0,87,0.00,,---,0.13,190.00,VWS V14.00,2013-05-11 19:42:00,
2013-05-11 15:47:00,53.2,49.7,29.91,NW,315,6.0,10.0,88,0.00,,---,0.13,279.00,VWS V14.00,2013-05-11 19:47:00,
2013-05-11 15:52:00,53.2,49.7,29.91,NW,321,8.0,8.0,88,0.00,,---,0.13,387.00,VWS V14.00,2013-05-11 19:52:00,
2013-05-11 15:57:00,53.2,49.4,29.91,NW,321,1.0,9.0,87,0.00,,---,0.13,443.00,VWS V14.00,2013-05-11 19:57:00,
2013-05-11 16:02:00,53.7,49.9,29.91,WNW,292,10.0,12.0,87,0.00,,---,0.13,545.00,VWS V14.00,2013-05-11 20:02:00,
2013-05-11 16:07:00,54.1,50.3,29.90,NW,316,5.0,10.0,87,0.00,,---,0.13,580.00,VWS V14.00,2013-05-11 20:07:00,
2013-05-11 16:12:00,55.0,51.2,29.90,NNW,331,6.0,11.0,87,0.00,,---,0.13,858.00,VWS V14.00,2013-05-11 20:12:00,
2013-05-11 16:17:00,55.1,50.4,29.91,WNW,295,10.0,10.0,84,0.00,,---,0.13,309.00,VWS V14.00,2013-05-11 20:17:00,
2013-05-11 16:22:00,55.1,50.4,29.91,West,265,3.0,9.0,84,0.00,,---,0.13,434.00,VWS V14.00,2013-05-11 20:22:00,
2013-05-11 16:27:00,55.2,50.5,29.91,West,267,5.0,9.0,84,0.00,,---,0.13,336.00,VWS V14.00,2013-05-11 20:27:00,
2013-05-11 16:32:00,55.2,50.5,29.91,NW,304,7.0,10.0,84,0.00,,---,0.13,367.00,VWS V14.00,2013-05-11 20:32:00,
2013-05-11 16:37:00,55.3,49.9,29.91,NW,314,8.0,13.0,82,0.00,,---,0.13,281.00,VWS V14.00,2013-05-11 20:37:00,
2013-05-11 16:42:00,55.3,50.2,29.91,NW,323,6.0,11.0,83,0.00,,---,0.13,311.00,VWS V14.00,2013-05-11 20:42:00,
2013-05-11 16:47:00,55.5,50.4,29.90,WSW,249,6.0,10.0,83,0.00,,---,0.13,506.00,VWS V14.00,2013-05-11 20:47:00,
2013-05-11 16:52:00,55.8,50.7,29.90,NNW,329,10.0,10.0,83,0.00,,---,0.13,255.00,VWS V14.00,2013-05-11 20:52:00,
2013-05-11 16:57:00,55.7,50.6,29.90,WSW,243,3.0,8.0,83,0.00,,---,0.13,209.00,VWS V14.00,2013-05-11 20:57:00,
2013-05-11 17:02:00,55.7,50.6,29.90,WNW,303,7.0,11.0,83,0.00,,---,0.13,406.00,VWS V14.00,2013-05-11 21:02:00,
2013-05-11 17:07:00,56.0,50.9,29.90,NNW,338,8.0,8.0,83,0.00,,---,0.13,357.00,VWS V14.00,2013-05-11 21:07:00,
2013-05-11 17:12:00,56.2,50.5,29.91,NW,308,4.0,13.0,81,0.00,,---,0.13,323.00,VWS V14.00,2013-05-11 21:12:00,
2013-05-11 17:17:00,56.4,50.7,29.91,NW,309,9.0,12.0,81,0.00,,---,0.13,339.00,VWS V14.00,2013-05-11 21:17:00,
2013-05-11 17:22:00,56.4,50.7,29.91,WNW,300,4.0,9.0,81,0.00,,---,0.13,383.00,VWS V14.00,2013-05-11 21:22:00,
2013-05-11 17:27:00,56.6,50.8,29.90,NNW,328,8.0,8.0,81,0.00,,---,0.13,670.00,VWS V14.00,2013-05-11 21:27:00,
2013-05-11 17:32:00,57.1,50.7,29.89,West,262,6.0,12.0,79,0.00,,---,0.13,612.00,VWS V14.00,2013-05-11 21:32:00,
2013-05-11 17:37:00,57.8,51.3,29.89,WNW,303,6.0,10.0,79,0.00,,---,0.13,582.00,VWS V14.00,2013-05-11 21:37:00,
2013-05-11 17:42:00,58.0,51.5,29.89,NW,310,6.0,9.0,79,0.00,,---,0.13,578.00,VWS V14.00,2013-05-11 21:42:00,
2013-05-11 17:47:00,58.1,51.3,29.90,WNW,283,1.0,9.0,78,0.00,,---,0.13,578.00,VWS V14.00,2013-05-11 21:47:00,
2013-05-11 17:52:00,58.4,51.6,29.90,NNW,331,10.0,10.0,78,0.00,,---,0.13,545.00,VWS V14.00,2013-05-11 21:52:00,
2013-05-11 17:57:00,58.6,52.1,29.91,NW,317,3.0,7.0,79,0.00,,---,0.13,490.00,VWS V14.00,2013-05-11 21:57:00,
2013-05-11 18:02:00,58.6,51.4,29.91,West,265,5.0,12.0,77,0.00,,---,0.13,272.00,VWS V14.00,2013-05-11 22:02:00,
2013-05-11 18:07:00,58.5,51.7,29.91,WNW,297,5.0,8.0,78,0.00,,---,0.13,494.00,VWS V14.00,2013-05-11 22:07:00,
2013-05-11 18:12:00,58.6,51.4,29.91,West,274,5.0,11.0,77,0.00,,---,0.13,482.00,VWS V14.00,2013-05-11 22:12:00,
2013-05-11 18:17:00,58.8,51.3,29.91,NW,313,11.0,12.0,76,0.00,,---,0.13,482.00,VWS V14.00,2013-05-11 22:17:00,
2013-05-11 18:22:00,58.9,51.7,29.90,WNW,284,6.0,7.0,77,0.00,,---,0.13,446.00,VWS V14.00,2013-05-11 22:22:00,
2013-05-11 18:27:00,58.8,52.0,29.90,NW,309,1.0,6.0,78,0.00,,---,0.13,227.00,VWS V14.00,2013-05-11 22:27:00,
2013-05-11 18:32:00,58.8,52.0,29.90,NW,323,5.0,7.0,78,0.00,,---,0.13,155.00,VWS V14.00,2013-05-11 22:32:00,
2013-05-11 18:37:00,58.9,51.7,29.90,West,281,2.0,7.0,77,0.00,,---,0.13,343.00,VWS V14.00,2013-05-11 22:37:00,
2013-05-11 18:42:00,59.0,51.8,29.90,WSW,256,4.0,9.0,77,0.00,,---,0.13,315.00,VWS V14.00,2013-05-11 22:42:00,
2013-05-11 18:47:00,59.1,51.9,29.89,SW,218,5.0,8.0,77,0.00,,---,0.13,236.00,VWS V14.00,2013-05-11 22:47:00,
2013-05-11 18:52:00,59.0,52.2,29.89,SW,222,1.0,10.0,78,0.00,,---,0.13,151.00,VWS V14.00,2013-05-11 22:52:00,
2013-05-11 18:57:00,58.8,51.6,29.89,WNW,282,2.0,9.0,77,0.00,,---,0.13,128.00,VWS V14.00,2013-05-11 22:57:00,
2013-05-11 19:02:00,58.7,52.2,29.89,SW,219,2.0,7.0,79,0.00,,---,0.13,255.00,VWS V14.00,2013-05-11 23:02:00,
2013-05-11 19:07:00,58.7,51.9,29.89,West,264,2.0,9.0,78,0.00,,---,0.13,236.00,VWS V14.00,2013-05-11 23:07:00,
2013-05-11 19:12:00,58.9,52.4,29.89,West,274,2.0,5.0,79,0.00,,---,0.13,213.00,VWS V14.00,2013-05-11 23:12:00,
2013-05-11 19:17:00,59.2,52.3,29.89,SW,222,6.0,8.0,78,0.00,,---,0.13,195.00,VWS V14.00,2013-05-11 23:17:00,
2013-05-11 19:22:00,59.2,52.3,29.89,West,277,0.0,5.0,78,0.00,,---,0.13,174.00,VWS V14.00,2013-05-11 23:22:00,
2013-05-11 19:27:00,59.2,52.3,29.89,West,277,4.0,8.0,78,0.00,,---,0.13,155.00,VWS V14.00,2013-05-11 23:27:00,
2013-05-11 19:32:00,58.9,52.1,29.89,WSW,252,6.0,9.0,78,0.00,,---,0.13,139.00,VWS V14.00,2013-05-11 23:32:00,
2013-05-11 19:37:00,58.8,52.0,29.88,NW,307,5.0,7.0,78,0.00,,---,0.13,125.00,VWS V14.00,2013-05-11 23:37:00,
2013-05-11 19:42:00,58.7,52.2,29.88,West,269,2.0,4.0,79,0.00,,---,0.13,102.00,VWS V14.00,2013-05-11 23:42:00,
2013-05-11 19:47:00,58.7,52.2,29.89,West,268,2.0,4.0,79,0.00,,---,0.13,72.00,VWS V14.00,2013-05-11 23:47:00,
2013-05-11 19:52:00,58.5,52.0,29.89,West,271,3.0,6.0,79,0.00,,---,0.13,35.00,VWS V14.00,2013-05-11 23:52:00,
2013-05-11 19:57:00,58.0,51.9,29.89,WNW,301,5.0,6.0,80,0.00,,---,0.13,25.00,VWS V14.00,2013-05-11 23:57:00,
2013-05-11 20:02:00,57.7,51.9,29.89,West,273,1.0,6.0,81,0.00,,---,0.13,32.00,VWS V14.00,2013-05-12 00:02:00,
2013-05-11 20:07:00,57.4,51.6,29.89,WSW,238,4.0,6.0,81,0.00,,---,0.13,19.00,VWS V14.00,2013-05-12 00:07:00,
2013-05-11 20:12:00,57.1,51.7,29.89,West,269,4.0,5.0,82,0.00,,---,0.13,18.00,VWS V14.00,2013-05-12 00:12:00,
2013-05-11 20:17:00,57.0,51.6,29.89,West,270,2.0,5.0,82,0.00,,---,0.13,12.00,VWS V14.00,2013-05-12 00:17:00,
2013-05-11 20:22:00,56.9,51.5,29.89,WSW,244,2.0,2.0,82,0.00,,---,0.13,9.00,VWS V14.00,2013-05-12 00:22:00,
2013-05-11 20:27:00,56.8,51.7,29.89,West,281,0.0,8.0,83,0.00,,---,0.13,5.00,VWS V14.00,2013-05-12 00:27:00,
2013-05-11 20:32:00,56.7,51.6,29.89,West,281,2.0,2.0,83,0.00,,---,0.13,0.00,VWS V14.00,2013-05-12 00:32:00,
2013-05-11 20:37:00,56.5,51.7,29.89,West,260,0.0,3.0,84,0.00,,---,0.13,0.00,VWS V14.00,2013-05-12 00:37:00,
2013-05-11 20:42:00,56.4,51.6,29.89,WNW,289,2.0,5.0,84,0.00,,---,0.13,0.00,VWS V14.00,2013-05-12 00:42:00,
2013-05-11 20:47:00,56.3,51.5,29.89,WSW,252,0.0,3.0,84,0.00,,---,0.13,0.00,VWS V14.00,2013-05-12 00:47:00,
2013-05-11 20:52:00,56.3,51.5,29.89,West,281,0.0,5.0,84,0.00,,---,0.13,0.00,VWS V14.00,2013-05-12 00:52:00,
2013-05-11 20:57:00,56.2,51.4,29.89,WNW,302,4.0,6.0,84,0.00,,---,0.13,0.00,VWS V14.00,2013-05-12 00:57:00,
2013-05-11 21:02:00,56.2,51.4,29.90,West,263,5.0,6.0,84,0.00,,---,0.13,0.00,VWS V14.00,2013-05-12 01:02:00,
2013-05-11 21:07:00,56.2,51.8,29.89,WSW,242,5.0,6.0,85,0.00,,---,0.13,0.00,VWS V14.00,2013-05-12 01:07:00,
2013-05-11 21:12:00,56.2,51.8,29.90,WNW,285,1.0,7.0,85,0.00,,---,0.13,0.00,VWS V14.00,2013-05-12 01:12:00,
2013-05-11 21:18:00,56.2,51.8,29.90,West,269,2.0,4.0,85,0.00,,---,0.13,0.00,VWS V14.00,2013-05-12 01:18:00,
2013-05-11 21:23:00,56.1,51.7,29.90,WNW,290,2.0,5.0,85,0.00,,---,0.13,0.00,VWS V14.00,2013-05-12 01:23:00,
2013-05-11 21:28:00,56.0,51.6,29.90,West,260,4.0,6.0,85,0.00,,---,0.13,0.00,VWS V14.00,2013-05-12 01:28:00,
2013-05-11 21:33:00,55.9,51.5,29.90,West,276,5.0,7.0,85,0.00,,---,0.13,0.00,VWS V14.00,2013-05-12 01:33:00,
2013-05-11 21:38:00,55.9,51.5,29.90,West,280,2.0,7.0,85,0.00,,---,0.13,0.00,VWS V14.00,2013-05-12 01:38:00,
2013-05-11 21:43:00,55.9,51.5,29.91,WNW,294,5.0,6.0,85,0.00,,---,0.13,0.00,VWS V14.00,2013-05-12 01:43:00,
2013-05-11 21:48:00,55.9,51.5,29.91,WNW,287,4.0,7.0,85,0.00,,---,0.13,0.00,VWS V14.00,2013-05-12 01:48:00,
2013-05-11 21:53:00,55.9,51.5,29.91,NW,325,7.0,7.0,85,0.00,,---,0.13,0.00,VWS V14.00,2013-05-12 01:53:00,
2013-05-11 21:58:00,55.9,51.5,29.91,WSW,252,6.0,8.0,85,0.00,,---,0.13,0.00,VWS V14.00,2013-05-12 01:58:00,
2013-05-11 22:03:00,55.8,51.4,29.91,WNW,298,5.0,8.0,85,0.00,,---,0.13,0.00,VWS V14.00,2013-05-12 02:03:00,
2013-05-11 22:08:00,55.7,51.3,29.92,WNW,297,4.0,10.0,85,0.00,,---,0.13,0.00,VWS V14.00,2013-05-12 02:08:00,
2013-05-11 22:13:00,55.5,51.1,29.92,WNW,287,4.0,8.0,85,0.00,,---,0.13,0.00,VWS V14.00,2013-05-12 02:13:00,
2013-05-11 22:18:00,55.5,51.1,29.93,NW,316,9.0,10.0,85,0.00,,---,0.13,0.00,VWS V14.00,2013-05-12 02:18:00,
2013-05-11 22:23:00,55.6,51.2,29.94,NW,313,18.0,19.0,85,0.00,,---,0.13,0.00,VWS V14.00,2013-05-12 02:23:00,
2013-05-11 22:28:00,55.9,51.1,29.94,North,5,5.0,24.0,84,0.00,,---,0.13,0.00,VWS V14.00,2013-05-12 02:28:00,
2013-05-11 22:33:00,55.6,49.9,29.95,North,355,4.0,9.0,81,0.00,,---,0.13,0.00,VWS V14.00,2013-05-12 02:33:00,
2013-05-11 22:38:00,54.7,46.9,29.95,North,355,4.0,8.0,75,0.00,,---,0.13,0.00,VWS V14.00,2013-05-12 02:38:00,
2013-05-11 22:43:00,53.7,46.3,29.96,North,9,2.0,9.0,76,0.00,,---,0.13,0.00,VWS V14.00,2013-05-12 02:43:00,
2013-05-11 22:48:00,53.1,46.1,29.96,NNE,31,3.0,7.0,77,0.00,,---,0.13,0.00,VWS V14.00,2013-05-12 02:48:00,
2013-05-11 22:53:00,52.6,46.0,29.97,NE,46,6.0,7.0,78,0.00,,---,0.13,0.00,VWS V14.00,2013-05-12 02:53:00,
2013-05-11 22:58:00,51.8,44.5,29.97,NE,50,3.0,12.0,76,0.00,,---,0.13,0.00,VWS V14.00,2013-05-12 02:58:00,
2013-05-11 23:03:00,51.1,43.8,29.97,NE,38,2.0,7.0,76,0.00,,---,0.13,0.00,VWS V14.00,2013-05-12 03:03:00,
2013-05-11 23:08:00,50.6,43.7,29.98,NE,36,3.0,5.0,77,0.00,,---,0.13,0.00,VWS V14.00,2013-05-12 03:08:00,
2013-05-11 23:13:00,50.2,43.6,29.98,NE,38,2.0,5.0,78,0.00,,---,0.13,0.00,VWS V14.00,2013-05-12 03:13:00,
2013-05-11 23:18:00,49.9,44.0,29.99,NNE,27,3.0,7.0,80,0.00,,---,0.13,0.00,VWS V14.00,2013-05-12 03:18:00,
2013-05-11 23:23:00,49.5,44.2,29.99,North,355,0.0,5.0,82,0.00,,---,0.13,0.00,VWS V14.00,2013-05-12 03:23:00,
2013-05-11 23:28:00,49.2,44.3,29.99,NNE,32,5.0,6.0,83,0.00,,---,0.13,0.00,VWS V14.00,2013-05-12 03:28:00,
2013-05-11 23:33:00,48.8,43.9,29.99,ENE,76,2.0,4.0,83,0.00,,---,0.13,0.00,VWS V14.00,2013-05-12 03:33:00,
2013-05-11 23:38:00,48.5,43.9,29.99,ENE,71,5.0,5.0,84,0.00,,---,0.13,0.00,VWS V14.00,2013-05-12 03:38:00,
2013-05-11 23:43:00,48.2,43.3,29.99,ENE,69,1.0,7.0,83,0.00,,---,0.13,0.00,VWS V14.00,2013-05-12 03:43:00,
2013-05-11 23:48:00,47.9,43.0,29.99,North,5,0.0,6.0,83,0.00,,---,0.13,0.00,VWS V14.00,2013-05-12 03:48:00,
2013-05-11 23:53:00,47.7,42.8,29.99,NE,34,1.0,6.0,83,0.00,,---,0.13,0.00,VWS V14.00,2013-05-12 03:53:00,
2013-05-11 23:58:00,47.5,42.6,30.00,NNE,19,2.0,4.0,83,0.00,,---,0.00,0.00,VWS V14.00,2013-05-12 03:58:00,